Time;durP1;ratioP1;P1;durP2;ratioP2;P2;SDS_P1;SDS_P2;PMS_P1;PMS_P2;Temp;Humidity;BMP_temperature;BMP_pressure;BME280_temperature;BME280_humidity;BME280_pressure;Samples;Min_cycle;Max_cycle;Signal;HPM_P1;HPM_P2
2023/04/23 00:02:21;;;;;;;39.60;22.10;;;;;;;11.98;52.62;98691.99;223748;181;137925;-64
2023/04/23 00:07:26;;;;;;;33.30;20.60;;;;;;;11.91;52.94;98692.73;223718;214;147134;-63
2023/04/23 00:12:30;;;;;;;32.70;21.30;;;;;;;11.82;53.27;98689.76;223516;181;140375;-63
2023/04/23 00:17:33;;;;;;;34.30;19.90;;;;;;;11.75;53.41;98688.85;223807;214;137237;-63
2023/04/23 00:22:37;;;;;;;30.50;19.20;;;;;;;11.69;53.21;98684.31;223711;181;147738;-64
2023/04/23 00:27:40;;;;;;;31.20;19.50;;;;;;;11.64;53.84;98683.81;223673;181;138751;-63
2023/04/23 00:32:43;;;;;;;37.80;19.30;;;;;;;11.58;54.16;98683.66;223772;181;140028;-66
2023/04/23 00:37:47;;;;;;;30.20;19.40;;;;;;;11.55;54.33;98686.23;223723;181;147687;-65
2023/04/23 00:42:52;;;;;;;32.40;18.30;;;;;;;11.49;54.32;98685.06;223532;181;138883;-65
2023/04/23 00:47:55;;;;;;;28.70;17.30;;;;;;;11.45;54.43;98679.64;223567;182;138171;-64
2023/04/23 00:52:58;;;;;;;32.80;19.20;;;;;;;11.39;54.70;98678.66;223689;179;147756;-63
2023/04/23 00:58:02;;;;;;;30.20;18.30;;;;;;;11.33;54.95;98683.50;223604;187;138970;-64
2023/04/23 01:03:05;;;;;;;33.80;19.70;;;;;;;11.24;55.08;98679.54;223687;181;137597;-64
2023/04/23 01:08:14;;;;;;;30.60;19.70;;;;;;;11.19;54.99;98675.44;223548;181;147221;-64
2023/04/23 01:13:17;;;;;;;28.90;18.40;;;;;;;11.18;54.96;98677.35;223408;215;138399;-64
2023/04/23 01:18:22;;;;;;;32.00;19.00;;;;;;;11.08;55.04;98675.84;223576;183;139512;-64
2023/04/23 01:23:26;;;;;;;32.50;18.90;;;;;;;11.00;55.13;98675.16;223320;184;147525;-65
2023/04/23 01:28:30;;;;;;;33.00;19.00;;;;;;;10.93;55.10;98680.29;223389;185;138893;-63
2023/04/23 01:33:34;;;;;;;30.80;16.50;;;;;;;10.86;55.40;98680.39;223571;184;137301;-64
2023/04/23 01:38:38;;;;;;;29.10;17.20;;;;;;;10.77;55.75;98681.90;223489;183;147859;-65
2023/04/23 01:43:42;;;;;;;28.60;16.80;;;;;;;10.72;56.08;98687.80;223386;215;138162;-64
2023/04/23 01:48:45;;;;;;;30.90;16.90;;;;;;;10.69;55.96;98685.34;223556;181;137713;-64
2023/04/23 01:53:48;;;;;;;26.40;16.80;;;;;;;10.61;56.02;98689.55;223427;215;147683;-66
2023/04/23 01:58:52;;;;;;;31.10;16.00;;;;;;;10.55;56.10;98689.42;223411;181;138258;-63
2023/04/23 02:03:57;;;;;;;24.50;15.40;;;;;;;10.51;56.42;98692.94;223518;182;137411;-66
2023/04/23 02:09:02;;;;;;;29.10;16.20;;;;;;;10.49;56.46;98692.33;222993;183;282526;-65
2023/04/23 02:14:06;;;;;;;29.40;15.80;;;;;;;10.46;56.59;98693.65;223064;183;140013;-67
2023/04/23 02:19:10;;;;;;;29.10;15.10;;;;;;;10.41;56.75;98692.19;223543;181;137792;-64
2023/04/23 02:24:14;;;;;;;30.50;15.40;;;;;;;10.33;56.86;98689.87;223519;181;147576;-65
2023/04/23 02:29:18;;;;;;;24.30;14.20;;;;;;;10.29;56.91;98688.88;223276;181;138292;-64
2023/04/23 02:34:21;;;;;;;24.20;15.10;;;;;;;10.22;57.10;98685.11;222985;181;137297;-64
2023/04/23 02:39:25;;;;;;;25.20;14.20;;;;;;;10.16;57.18;98687.56;223635;186;147267;-64
2023/04/23 02:44:28;;;;;;;27.00;15.00;;;;;;;10.12;57.35;98684.30;223607;181;138439;-65
2023/04/23 02:49:31;;;;;;;27.50;15.00;;;;;;;10.10;57.35;98683.56;223485;183;137407;-64
2023/04/23 02:54:35;;;;;;;33.40;16.60;;;;;;;10.06;57.37;98686.32;223508;181;147750;-64
2023/04/23 02:59:39;;;;;;;26.70;15.60;;;;;;;10.03;57.53;98684.88;223417;186;138708;-63
2023/04/23 03:04:43;;;;;;;26.40;14.50;;;;;;;10.02;57.42;98686.73;223160;181;137508;-66
2023/04/23 03:09:47;;;;;;;25.90;14.80;;;;;;;9.97;57.65;98682.43;222506;193;147074;-66
2023/04/23 03:14:57;;;;;;;24.40;15.20;;;;;;;9.90;57.82;98683.09;223322;181;139977;-64
2023/04/23 03:20:03;;;;;;;34.70;15.40;;;;;;;9.85;57.82;98684.48;223470;181;137161;-64
2023/04/23 03:25:09;;;;;;;24.10;14.10;;;;;;;9.78;57.83;98682.30;223486;181;147157;-64
2023/04/23 03:30:14;;;;;;;27.20;14.40;;;;;;;9.70;58.17;98688.77;223499;181;138392;-63
2023/04/23 03:35:17;;;;;;;28.50;15.10;;;;;;;9.65;58.19;98691.93;223284;181;138122;-65
2023/04/23 03:40:22;;;;;;;27.30;15.00;;;;;;;9.60;58.39;98692.30;223319;181;148979;-64
2023/04/23 03:45:29;;;;;;;26.00;13.60;;;;;;;9.57;58.43;98691.90;223115;215;138204;-64
2023/04/23 03:50:37;;;;;;;25.30;13.60;;;;;;;9.57;58.63;98692.27;223337;186;137760;-66
2023/04/23 03:55:51;;;;;;;23.20;14.10;;;;;;;9.59;58.57;98693.96;223388;181;148137;-64
2023/04/23 04:00:54;;;;;;;23.70;13.70;;;;;;;9.59;58.78;98691.08;222765;181;138473;-63
2023/04/23 04:05:59;;;;;;;25.00;14.40;;;;;;;9.59;58.73;98690.75;223122;184;137167;-63
2023/04/23 04:11:02;;;;;;;25.20;13.70;;;;;;;9.60;58.95;98693.16;223179;181;147155;-65
2023/04/23 04:16:06;;;;;;;21.20;12.40;;;;;;;9.61;59.17;98693.61;223501;215;138836;-64
2023/04/23 04:21:09;;;;;;;26.50;13.90;;;;;;;9.59;59.15;98699.77;223497;195;136983;-64
2023/04/23 04:26:14;;;;;;;29.00;14.40;;;;;;;9.61;59.24;98700.56;223394;215;147075;-64
2023/04/23 04:31:19;;;;;;;27.50;13.80;;;;;;;9.65;59.37;98702.40;223219;181;138240;-63
2023/04/23 04:36:24;;;;;;;22.80;13.80;;;;;;;9.73;59.38;98707.21;223266;181;137392;-62
2023/04/23 04:41:27;;;;;;;25.50;13.90;;;;;;;9.76;59.27;98708.80;223410;181;267742;-64
2023/04/23 04:46:30;;;;;;;20.30;12.80;;;;;;;9.80;59.30;98711.23;223215;181;140521;-63
2023/04/23 04:51:34;;;;;;;23.70;14.00;;;;;;;9.86;59.12;98707.09;223245;183;137607;-64
2023/04/23 04:56:38;;;;;;;26.40;15.70;;;;;;;9.95;58.86;98705.24;223454;182;147244;-64
2023/04/23 05:01:42;;;;;;;21.20;13.90;;;;;;;10.06;58.72;98708.30;223485;182;139939;-65
2023/04/23 05:06:45;;;;;;;21.50;13.70;;;;;;;10.21;58.56;98707.48;223637;181;137863;-65
2023/04/23 05:11:48;;;;;;;25.70;14.60;;;;;;;10.37;58.65;98707.14;223510;181;147080;-66
2023/04/23 05:16:51;;;;;;;24.20;14.60;;;;;;;10.56;58.64;98704.60;223514;181;139401;-64
2023/04/23 05:21:55;;;;;;;23.00;14.30;;;;;;;10.73;58.54;98701.35;223524;215;137422;-65
2023/04/23 05:26:58;;;;;;;24.80;14.70;;;;;;;10.93;58.34;98697.30;223539;183;147090;-63
2023/04/23 05:32:01;;;;;;;24.60;15.40;;;;;;;11.11;58.25;98693.92;223471;182;138308;-65
2023/04/23 05:37:05;;;;;;;25.90;15.20;;;;;;;11.31;58.01;98696.45;223480;181;137331;-64
2023/04/23 05:42:08;;;;;;;24.20;15.60;;;;;;;11.50;57.56;98697.56;223457;181;147631;-64
2023/04/23 05:47:13;;;;;;;22.70;15.90;;;;;;;11.67;57.27;98696.90;223431;181;138365;-66
2023/04/23 05:52:16;;;;;;;22.30;15.30;;;;;;;11.85;56.39;98692.26;223508;181;137712;-65
2023/04/23 05:57:19;;;;;;;26.00;15.80;;;;;;;12.06;56.45;98697.14;223439;214;147684;-65
2023/04/23 06:02:22;;;;;;;27.90;16.00;;;;;;;12.22;56.47;98700.38;223461;204;138935;-64
2023/04/23 06:07:27;;;;;;;28.10;17.80;;;;;;;12.40;56.27;98701.16;223421;181;137512;-64
2023/04/23 06:12:31;;;;;;;33.90;18.50;;;;;;;12.58;55.89;98694.44;223424;181;147121;-65
2023/04/23 06:17:35;;;;;;;32.10;18.30;;;;;;;12.78;55.32;98694.38;223404;204;138138;-65
2023/04/23 06:22:38;;;;;;;41.50;21.20;;;;;;;12.97;55.46;98695.76;223540;183;137569;-64
2023/04/23 06:27:41;;;;;;;47.30;22.50;;;;;;;13.13;55.10;98695.89;223427;204;147774;-66
2023/04/23 06:32:53;;;;;;;46.80;23.20;;;;;;;13.34;54.76;98700.03;223434;183;138965;-64
2023/04/23 06:37:56;;;;;;;42.00;20.80;;;;;;;13.57;54.50;98696.38;223481;215;137971;-64
2023/04/23 06:43:03;;;;;;;41.30;19.70;;;;;;;13.81;54.07;98696.11;223445;182;147582;-65
2023/04/23 06:48:17;;;;;;;30.10;16.90;;;;;;;14.09;53.46;98690.61;223457;183;141296;-65
2023/04/23 06:53:21;;;;;;;29.70;16.70;;;;;;;14.35;52.80;98685.02;223505;182;141325;-66
2023/04/23 06:58:29;;;;;;;24.90;15.60;;;;;;;14.59;52.10;98677.54;223504;181;146965;-65
2023/04/23 07:03:33;;;;;;;24.20;15.30;;;;;;;14.81;51.70;98676.61;223546;215;139161;-66
2023/04/23 07:08:38;;;;;;;25.00;14.50;;;;;;;15.03;50.98;98671.48;223409;182;137919;-65
2023/04/23 07:13:41;;;;;;;24.10;14.00;;;;;;;15.23;50.64;98672.02;223447;181;147823;-64
2023/04/23 07:18:44;;;;;;;28.40;14.40;;;;;;;15.47;50.23;98675.65;223424;182;138784;-65
2023/04/23 07:23:48;;;;;;;22.10;12.90;;;;;;;15.64;49.24;98673.27;223523;183;138032;-64
2023/04/23 07:28:51;;;;;;;13.40;8.60;;;;;;;15.77;48.13;98668.20;223477;181;146886;-65
2023/04/23 07:33:55;;;;;;;12.50;8.40;;;;;;;15.98;46.75;98667.63;223491;182;139684;-65
2023/04/23 07:38:58;;;;;;;16.80;10.90;;;;;;;16.17;45.53;98666.21;222862;181;136845;-66
2023/04/23 07:44:01;;;;;;;14.80;9.80;;;;;;;16.36;45.32;98661.27;223371;181;146951;-66
2023/04/23 07:49:04;;;;;;;14.40;9.30;;;;;;;16.54;44.37;98660.11;223588;181;138520;-67
2023/04/23 07:54:08;;;;;;;15.10;8.40;;;;;;;16.68;44.23;98655.58;223458;181;139646;-67
2023/04/23 07:59:11;;;;;;;10.60;7.60;;;;;;;16.91;43.27;98653.17;223391;182;147825;-68
2023/04/23 08:04:14;;;;;;;11.90;7.70;;;;;;;17.08;42.47;98651.85;223467;182;138415;-69
2023/04/23 08:09:26;;;;;;;10.00;6.70;;;;;;;17.27;42.22;98642.16;223561;181;136981;-69
2023/04/23 08:14:30;;;;;;;10.70;6.80;;;;;;;17.49;41.77;98637.11;223413;181;146990;-66
2023/04/23 08:19:34;;;;;;;14.80;7.10;;;;;;;17.68;41.06;98634.75;223459;181;138411;-68
2023/04/23 08:24:37;;;;;;;17.40;6.40;;;;;;;17.84;41.32;98626.21;223499;215;139007;-67
2023/04/23 08:29:40;;;;;;;13.40;6.10;;;;;;;18.08;40.97;98622.95;223387;181;148943;-67
2023/04/23 08:34:43;;;;;;;14.50;5.40;;;;;;;18.33;40.09;98618.50;223499;181;138631;-67
2023/04/23 08:39:46;;;;;;;9.10;5.00;;;;;;;18.54;38.83;98616.34;223614;215;137063;-68
2023/04/23 08:44:51;;;;;;;11.10;5.80;;;;;;;18.73;38.38;98611.23;223567;181;148096;-65
2023/04/23 08:49:58;;;;;;;12.40;4.50;;;;;;;18.90;37.83;98598.27;223462;181;138346;-65
2023/04/23 08:55:06;;;;;;;14.30;5.60;;;;;;;19.05;36.91;98593.61;223561;181;140544;-69
2023/04/23 09:00:10;;;;;;;13.30;5.20;;;;;;;19.24;36.92;98590.44;223448;181;147521;-68
2023/04/23 09:05:14;;;;;;;11.30;5.30;;;;;;;19.42;37.05;98581.85;223511;203;139015;-65
2023/04/23 09:10:17;;;;;;;14.60;6.50;;;;;;;19.62;36.24;98578.45;223663;181;136620;-66
2023/04/23 09:15:21;;;;;;;8.70;5.40;;;;;;;19.85;36.39;98574.98;223421;215;147024;-64
2023/04/23 09:25:40;;;;;;;7.90;5.20;;;;;;;20.26;35.99;98560.72;221950;193;666648;-66
2023/04/23 09:30:44;;;;;;;14.20;4.90;;;;;;;20.22;35.71;98558.02;223420;184;140038;-65
2023/04/23 09:35:47;;;;;;;7.60;4.60;;;;;;;20.15;34.82;98552.78;223407;184;143687;-67
2023/04/23 09:40:50;;;;;;;5.80;3.70;;;;;;;20.28;34.17;98550.98;223332;216;138915;-67
2023/04/23 09:45:54;;;;;;;8.40;5.00;;;;;;;20.37;33.65;98544.44;223483;206;136413;-61
2023/04/23 09:51:01;;;;;;;11.70;5.20;;;;;;;20.55;34.44;98541.35;223414;183;143479;-64
2023/04/23 09:56:06;;;;;;;10.10;4.70;;;;;;;20.80;35.58;98535.11;223503;184;140272;-65
2023/04/23 10:01:09;;;;;;;8.70;4.60;;;;;;;21.00;36.23;98529.82;223554;183;136462;-65
2023/04/23 10:06:16;;;;;;;6.80;3.90;;;;;;;21.27;35.02;98525.50;223412;183;143399;-65
2023/04/23 10:11:41;;;;;;;9.40;3.90;;;;;;;21.61;33.81;98516.10;223429;183;139094;-67
2023/04/23 10:16:49;;;;;;;8.20;4.50;;;;;;;21.88;31.56;98507.60;223410;184;138462;-68
2023/04/23 10:22:00;;;;;;;5.10;3.20;;;;;;;22.14;30.53;98502.57;223476;217;146267;-64
2023/04/23 10:27:27;;;;;;;10.10;3.40;;;;;;;22.31;28.43;98492.74;223319;217;138445;-65
2023/04/23 10:32:50;;;;;;;5.80;3.20;;;;;;;22.51;29.57;98492.49;223367;184;137815;-67
2023/04/23 10:37:54;;;;;;;12.40;3.60;;;;;;;22.81;29.92;98480.23;223343;184;145568;-67
2023/04/23 10:42:59;;;;;;;5.30;3.20;;;;;;;23.10;30.04;98469.09;223316;184;138495;-66
2023/04/23 10:48:03;;;;;;;8.40;3.40;;;;;;;23.35;29.32;98464.39;223319;184;137012;-70
2023/04/23 10:53:17;;;;;;;7.50;2.90;;;;;;;23.54;28.14;98458.34;223307;184;145960;-68
2023/04/23 10:58:23;;;;;;;7.10;3.10;;;;;;;23.77;27.25;98460.04;223373;184;139040;-66
2023/04/23 11:03:44;;;;;;;19.70;14.00;;;;;;;23.93;25.94;98458.21;223413;217;136257;-67
2023/04/23 11:08:55;;;;;;;5.20;3.10;;;;;;;24.04;24.83;98459.50;223414;184;145890;-69
2023/04/23 11:14:15;;;;;;;6.80;5.30;;;;;;;24.10;24.43;98456.29;223339;184;138311;-62
2023/04/23 11:19:18;;;;;;;9.50;3.10;;;;;;;24.16;24.43;98450.19;223386;184;137171;-62
2023/04/23 11:24:23;;;;;;;352.90;270.10;;;;;;;24.30;23.92;98442.22;223235;184;145862;-66
2023/04/23 11:29:27;;;;;;;7.70;4.70;;;;;;;24.43;24.01;98437.81;223597;183;139175;-65
2023/04/23 11:34:32;;;;;;;8.10;3.00;;;;;;;24.62;23.59;98430.80;223532;183;137071;-66
2023/04/23 11:39:35;;;;;;;5.30;2.80;;;;;;;24.58;23.71;98423.60;223585;183;144978;-67
2023/04/23 11:44:40;;;;;;;6.50;2.90;;;;;;;24.77;23.48;98425.39;223442;183;139818;-67
2023/04/23 11:49:44;;;;;;;;;;;;;;;24.93;22.45;98421.09;223537;183;136630;-66
2023/04/23 11:54:48;;;;;;;78.00;62.10;;;;;;;24.85;22.42;98423.59;223577;183;145553;-65
2023/04/23 11:59:52;;;;;;;5.20;3.30;;;;;;;24.49;22.18;98416.73;223623;182;138480;-65
2023/04/23 12:04:55;;;;;;;6.00;2.70;;;;;;;24.34;22.77;98415.77;223725;182;136603;-65
2023/04/23 12:10:01;;;;;;;5.20;2.80;;;;;;;24.15;23.54;98413.11;223752;182;146032;-65
2023/04/23 12:15:06;;;;;;;8.60;3.60;;;;;;;24.14;23.48;98408.30;223594;182;139709;-65
2023/04/23 12:20:12;;;;;;;4.40;2.90;;;;;;;24.43;23.14;98406.46;223606;182;139275;-64
2023/04/23 12:25:15;;;;;;;6.00;2.90;;;;;;;24.42;22.85;98410.18;223649;183;145912;-65
2023/04/23 12:30:19;;;;;;;3.10;2.60;;;;;;;24.40;22.45;98403.73;223592;182;140084;-65
2023/04/23 12:35:42;;;;;;;3.60;2.50;;;;;;;24.47;22.97;98397.80;223619;182;137032;-64
2023/04/23 12:40:46;;;;;;;3.50;2.40;;;;;;;24.38;22.91;98396.73;223639;182;145875;-65
2023/04/23 12:45:50;;;;;;;4.00;2.80;;;;;;;24.68;22.74;98390.01;223609;182;140467;-66
2023/04/23 12:50:53;;;;;;;5.50;2.50;;;;;;;25.06;23.07;98373.89;223564;182;136792;-66
2023/04/23 12:55:56;;;;;;;5.50;2.60;;;;;;;25.42;23.63;98358.00;223623;182;145331;-65
2023/04/23 13:00:59;;;;;;;4.10;2.60;;;;;;;25.76;22.68;98352.34;223640;181;139399;-66
2023/04/23 13:06:03;;;;;;;4.20;2.50;;;;;;;26.05;21.57;98352.89;223631;181;136599;-66
2023/04/23 13:11:06;;;;;;;5.00;2.50;;;;;;;26.24;21.62;98350.77;223749;182;145204;-65
2023/04/23 13:16:10;;;;;;;6.20;2.70;;;;;;;26.39;20.49;98346.83;223745;182;138586;-65
2023/04/23 13:21:13;;;;;;;7.60;2.90;;;;;;;26.17;20.69;98340.34;223717;182;136760;-65
2023/04/23 13:26:17;;;;;;;7.00;2.60;;;;;;;26.34;20.55;98335.66;223651;182;145903;-65
2023/04/23 13:31:20;;;;;;;6.10;2.50;;;;;;;26.38;20.51;98333.48;223727;182;138535;-65
2023/04/23 13:36:24;;;;;;;4.00;2.80;;;;;;;26.07;20.25;98329.45;223765;182;137406;-64
2023/04/23 13:41:27;;;;;;;6.80;2.80;;;;;;;25.83;20.62;98325.76;223745;181;146963;-65
2023/04/23 13:46:31;;;;;;;15.70;3.00;;;;;;;26.02;20.58;98324.36;223690;182;140404;-67
2023/04/23 13:51:34;;;;;;;3.30;2.30;;;;;;;26.20;20.62;98309.48;223791;182;137166;-65
2023/04/23 16:05:30;;;;;;;3.00;2.40;;;;;;;23.58;22.93;98228.98;222297;191;665694;-66
2023/04/23 16:10:33;;;;;;;4.10;2.60;;;;;;;23.59;23.11;98225.52;223123;187;135987;-66
2023/04/23 16:15:37;;;;;;;5.50;2.60;;;;;;;23.62;22.75;98226.50;223483;183;143252;-65
2023/04/23 16:20:40;;;;;;;4.20;2.80;;;;;;;23.69;23.38;98224.86;223577;183;138324;-65
2023/04/23 16:25:43;;;;;;;22.00;19.20;;;;;;;23.72;23.49;98221.38;223530;184;136756;-63
2023/04/23 16:30:46;;;;;;;158.60;135.90;;;;;;;23.77;23.36;98220.36;223368;183;143527;-68
2023/04/23 16:35:49;;;;;;;8.40;7.40;;;;;;;23.79;23.04;98220.30;223675;182;138191;-63
2023/04/23 16:40:53;;;;;;;12.60;10.40;;;;;;;23.76;23.05;98213.08;223809;182;137159;-65
2023/04/23 16:45:57;;;;;;;7.70;3.50;;;;;;;23.61;24.60;98212.08;223717;179;143529;-65
2023/04/23 16:51:00;;;;;;;6.00;3.90;;;;;;;23.46;23.81;98207.67;223647;181;138221;-64
2023/04/23 16:56:04;;;;;;;8.40;2.40;;;;;;;23.34;23.61;98202.73;223727;182;137067;-65
2023/04/23 17:01:07;;;;;;;5.80;2.60;;;;;;;23.16;23.43;98200.51;223749;182;145849;-64
2023/04/23 17:06:26;;;;;;;5.30;2.40;;;;;;;23.04;23.31;98201.53;223675;182;138181;-64
2023/04/23 17:11:30;;;;;;;6.10;2.90;;;;;;;22.94;23.95;98202.98;223714;182;137258;-64
2023/04/23 17:16:33;;;;;;;3.60;2.50;;;;;;;22.80;24.21;98202.90;223758;183;145531;-63
2023/04/23 17:25:34;;;;;;;4.90;3.00;;;;;;;22.56;26.18;98205.53;222112;193;666263;-65
2023/04/23 17:30:37;;;;;;;5.10;3.30;;;;;;;22.30;26.83;98202.74;223152;187;136989;-64
2023/04/23 17:35:40;;;;;;;8.60;3.40;;;;;;;22.13;27.94;98200.69;223371;186;143468;-65
2023/04/23 17:40:43;;;;;;;8.90;3.00;;;;;;;21.91;28.80;98205.59;223329;185;138677;-64
2023/04/23 17:45:47;;;;;;;8.80;3.30;;;;;;;21.69;28.97;98206.33;223275;185;137015;-64
2023/04/23 17:50:54;;;;;;;8.70;3.40;;;;;;;21.47;29.44;98209.34;223304;185;145839;-64
2023/04/23 17:56:01;;;;;;;10.90;4.00;;;;;;;21.27;30.25;98215.46;223448;185;138198;-62
2023/04/23 18:01:07;;;;;;;14.10;4.00;;;;;;;21.11;30.93;98218.27;223514;184;137230;-64
2023/04/23 18:06:11;;;;;;;91.60;73.90;;;;;;;20.93;31.53;98220.11;223609;183;144945;-64
2023/04/23 18:11:14;;;;;;;30.40;22.10;;;;;;;20.77;32.96;98226.98;223521;184;139121;-64
2023/04/23 18:16:18;;;;;;;12.30;4.90;;;;;;;20.59;34.57;98232.89;223619;184;136422;-64
2023/04/23 18:21:22;;;;;;;16.80;4.90;;;;;;;20.42;34.81;98233.04;223598;184;145117;-64
2023/04/23 18:26:25;;;;;;;411.90;354.10;;;;;;;20.27;35.96;98236.69;223295;184;159158;-64
2023/04/23 18:31:31;;;;;;;47.20;36.80;;;;;;;20.13;36.77;98239.05;223508;183;137638;-64
2023/04/23 18:36:41;;;;;;;10.80;6.10;;;;;;;19.99;36.97;98241.61;223445;185;146010;-63
2023/04/23 18:41:45;;;;;;;7.70;4.10;;;;;;;19.93;36.21;98240.80;223484;184;139086;-65
2023/04/23 18:46:49;;;;;;;8.60;4.30;;;;;;;20.00;32.72;98238.73;223526;185;136982;-65
2023/04/23 18:51:53;;;;;;;8.00;4.30;;;;;;;20.08;32.42;98234.58;223481;184;145014;-65
2023/04/23 18:56:56;;;;;;;10.40;4.60;;;;;;;20.13;33.59;98237.70;223514;184;140116;-64
2023/04/23 19:02:01;;;;;;;8.90;4.40;;;;;;;20.13;33.61;98235.05;223489;184;137839;-64
2023/04/23 19:07:05;;;;;;;7.20;4.10;;;;;;;20.14;33.09;98239.29;223723;182;145595;-65
2023/04/23 19:12:08;;;;;;;12.50;4.20;;;;;;;20.12;33.56;98237.26;223767;182;139635;-65
2023/04/23 19:17:11;;;;;;;10.50;5.00;;;;;;;20.08;33.08;98233.84;223650;182;136922;-65
2023/04/23 19:22:14;;;;;;;16.20;4.70;;;;;;;20.09;31.80;98233.56;223730;183;146265;-65
2023/04/23 19:27:17;;;;;;;8.40;4.90;;;;;;;20.11;31.77;98233.23;223744;182;138545;-65
2023/04/23 19:32:21;;;;;;;9.70;4.70;;;;;;;20.14;31.30;98231.98;223601;182;136604;-63
2023/04/23 19:37:25;;;;;;;8.10;4.60;;;;;;;20.13;31.18;98233.17;223755;182;145319;-65
2023/04/23 19:42:28;;;;;;;10.40;5.10;;;;;;;20.12;31.13;98230.88;223703;182;138497;-66
2023/04/23 19:47:33;;;;;;;11.30;5.40;;;;;;;20.13;30.92;98226.02;223802;182;137578;-65
2023/04/23 19:52:36;;;;;;;9.90;5.20;;;;;;;20.09;30.65;98222.02;223819;182;145214;-66
2023/04/23 19:57:40;;;;;;;9.70;4.90;;;;;;;20.05;30.70;98226.48;223645;182;138250;-67
2023/04/23 20:02:43;;;;;;;7.30;4.60;;;;;;;20.02;30.77;98223.02;223768;182;136537;-65
2023/04/23 20:07:47;;;;;;;11.80;5.10;;;;;;;20.00;30.82;98225.18;221853;182;147625;-68
2023/04/23 20:12:51;;;;;;;10.80;5.40;;;;;;;19.97;31.11;98225.98;222760;182;138459;-68
2023/04/23 20:17:54;;;;;;;14.70;5.70;;;;;;;19.90;31.33;98224.05;223568;182;137448;-66
2023/04/23 20:22:57;;;;;;;10.60;5.70;;;;;;;19.85;31.13;98227.30;223780;182;145346;-66
2023/04/23 20:28:01;;;;;;;13.20;5.40;;;;;;;19.79;31.18;98226.31;223740;183;265488;-62
2023/04/23 20:33:05;;;;;;;9.30;5.00;;;;;;;19.74;31.15;98226.39;223738;182;137625;-63
2023/04/23 20:38:11;;;;;;;7.40;5.20;;;;;;;19.69;31.29;98221.92;223711;183;146514;-63
2023/04/23 20:43:16;;;;;;;7.30;5.10;;;;;;;19.64;31.37;98224.09;223327;182;139212;-65
2023/04/23 20:48:19;;;;;;;13.40;5.50;;;;;;;19.60;31.50;98227.41;223463;182;137508;-62
2023/04/23 20:53:22;;;;;;;7.70;5.40;;;;;;;19.54;31.60;98228.04;223698;182;145875;-62
2023/04/23 20:58:26;;;;;;;7.50;4.80;;;;;;;19.50;31.59;98232.13;223792;182;138479;-64
2023/04/23 21:03:32;;;;;;;13.50;5.20;;;;;;;19.44;31.68;98233.38;223764;182;136754;-63
2023/04/23 21:08:41;;;;;;;9.70;5.40;;;;;;;19.39;31.84;98231.73;223752;182;145687;-63
2023/04/23 21:13:46;;;;;;;9.50;5.10;;;;;;;19.35;31.81;98231.11;223594;183;139427;-63
2023/04/23 21:18:57;;;;;;;9.60;4.70;;;;;;;19.32;31.78;98235.36;223741;182;137121;-63
2023/04/23 21:24:00;;;;;;;6.80;4.80;;;;;;;19.30;31.63;98233.14;223616;183;147377;-65
2023/04/23 21:29:05;;;;;;;11.90;4.90;;;;;;;19.26;31.36;98236.08;223782;183;140077;-68
2023/04/23 21:34:08;;;;;;;8.20;5.20;;;;;;;19.20;31.60;98231.39;223711;182;136984;-64
2023/04/23 21:39:11;;;;;;;10.00;5.10;;;;;;;19.18;31.69;98227.31;223635;183;145124;-68
2023/04/23 21:44:15;;;;;;;8.00;5.10;;;;;;;19.15;31.83;98227.04;223640;183;138463;-66
2023/04/23 21:49:20;;;;;;;;;;;;;;;19.09;31.78;98225.00;223676;183;137061;-66
2023/04/23 21:54:23;;;;;;;8.60;5.90;;;;;;;19.00;31.94;98224.61;223773;182;145096;-66
2023/04/23 21:59:26;;;;;;;11.60;5.20;;;;;;;18.91;32.26;98222.54;223686;182;139686;-65
2023/04/23 22:04:29;;;;;;;7.90;5.50;;;;;;;18.81;32.35;98224.31;223574;182;137011;-67
2023/04/23 22:09:33;;;;;;;9.50;5.70;;;;;;;18.73;32.48;98221.10;223469;194;145786;-67
2023/04/23 22:14:36;;;;;;;9.40;5.80;;;;;;;18.65;32.74;98223.25;223444;217;138236;-67
2023/04/23 22:19:39;;;;;;;8.90;5.60;;;;;;;18.57;32.79;98222.36;223562;182;141437;-65
2023/04/23 22:24:42;;;;;;;13.00;6.20;;;;;;;18.52;32.91;98220.64;223431;183;146575;-63
2023/04/23 22:29:46;;;;;;;12.30;6.00;;;;;;;18.49;33.04;98222.58;223367;186;138932;-62
2023/04/23 22:34:50;;;;;;;11.30;6.20;;;;;;;18.45;33.03;98221.73;223577;184;137409;-66
2023/04/23 22:39:53;;;;;;;10.50;6.70;;;;;;;18.39;33.17;98217.08;223464;183;145147;-67
2023/04/23 22:44:56;;;;;;;13.30;7.10;;;;;;;18.27;34.81;98217.35;223483;182;138387;-67
2023/04/23 22:50:00;;;;;;;8.50;5.70;;;;;;;17.98;36.79;98215.06;223384;183;137685;-67
2023/04/23 22:55:04;;;;;;;12.30;6.40;;;;;;;17.65;37.92;98221.31;223553;182;146451;-64
2023/04/23 23:00:10;;;;;;;13.70;7.70;;;;;;;17.36;39.66;98222.38;223478;182;138443;-65
2023/04/23 23:05:13;;;;;;;15.10;7.60;;;;;;;17.11;41.30;98221.70;223448;187;138118;-64
2023/04/23 23:10:16;;;;;;;13.70;9.00;;;;;;;16.89;42.85;98220.20;223575;182;146607;-65
2023/04/23 23:15:19;;;;;;;18.10;8.80;;;;;;;16.71;44.21;98216.29;223410;183;138381;-64
2023/04/23 23:20:23;;;;;;;14.40;9.10;;;;;;;16.52;44.77;98214.27;223432;182;137372;-63
2023/04/23 23:25:26;;;;;;;20.40;9.10;;;;;;;16.35;45.30;98210.88;223462;183;145620;-64
2023/04/23 23:30:29;;;;;;;14.00;8.50;;;;;;;16.26;45.63;98203.70;223381;183;138562;-63
2023/04/23 23:35:32;;;;;;;15.60;8.40;;;;;;;16.19;45.78;98212.66;223524;183;137033;-65
2023/04/23 23:40:36;;;;;;;16.10;8.10;;;;;;;16.09;45.42;98214.86;223507;183;145503;-65
2023/04/23 23:45:39;;;;;;;14.20;8.30;;;;;;;16.03;45.95;98215.83;223385;183;138919;-64
2023/04/23 23:50:42;;;;;;;11.60;7.90;;;;;;;15.91;46.86;98215.02;223514;182;136992;-64
2023/04/23 23:55:45;;;;;;;14.40;8.20;;;;;;;15.79;46.94;98212.83;223450;183;145079;-64
